Time;durP1;ratioP1;P1;durP2;ratioP2;P2;SDS_P1;SDS_P2;PMS_P1;PMS_P2;Temp;Humidity;BMP_temperature;BMP_pressure;BME280_temperature;BME280_humidity;BME280_pressure;Samples;Min_cycle;Max_cycle;Signal;HPM_P1;HPM_P2
2022/02/09 00:04:58;;;;;;;2.55;0.90;;;;;;;13.53;64.79;101463.03;4976053;28;20052;-86
2022/02/09 00:09:54;;;;;;;0.70;0.63;;;;;;;13.54;64.56;101459.41;4976043;28;20070;-86
2022/02/09 00:12:43;;;;;;;3.13;1.00;;;;;;;13.37;64.49;101452.59;4975635;28;20015;-87
2022/02/09 00:17:50;;;;;;;1.70;0.80;;;;;;;13.24;64.91;101454.28;4975795;28;20085;-86
2022/02/09 00:20:43;;;;;;;0.80;0.65;;;;;;;13.43;64.21;101457.47;4975244;28;20054;-86
2022/02/09 00:41:39;;;;;;;3.25;0.50;;;;;;;13.27;64.66;101454.09;4974827;28;20420;-86
2022/02/09 01:11:16;;;;;;;1.30;0.50;;;;;;;13.26;66.10;101428.66;4975118;28;20106;-86
2022/02/09 01:11:35;;;;;;;4.88;1.25;;;;;;;13.14;66.12;101422.34;4974453;28;20158;-86
2022/02/09 01:38:53;;;;;;;3.90;1.33;;;;;;;13.06;67.27;101412.28;4973548;28;20034;-86
2022/02/09 01:57:36;;;;;;;3.05;1.60;;;;;;;13.11;67.20;101409.34;4973358;28;20046;-86
2022/02/09 02:00:03;;;;;;;1.60;1.30;;;;;;;13.16;66.89;101412.56;4973121;28;20385;-86
2022/02/09 02:02:28;;;;;;;1.80;1.30;;;;;;;13.14;66.77;101409.16;4972787;28;20038;-86
2022/02/09 02:04:54;;;;;;;2.88;1.40;;;;;;;13.14;66.69;101416.22;4973179;28;20035;-85
2022/02/09 02:07:30;;;;;;;3.45;1.30;;;;;;;13.21;66.59;101399.06;4973263;28;20054;-86
2022/02/09 02:10:03;;;;;;;3.97;1.35;;;;;;;13.18;66.43;101418.56;4973205;28;20026;-86
2022/02/09 02:12:31;;;;;;;3.03;1.13;;;;;;;13.21;66.74;101414.88;4973210;28;20150;-86
2022/02/09 02:15:03;;;;;;;3.28;1.10;;;;;;;13.02;67.17;101421.31;4973049;28;20106;-86
2022/02/09 02:17:38;;;;;;;4.13;1.20;;;;;;;13.05;66.79;101415.88;4972792;28;20082;-86
2022/02/09 02:20:14;;;;;;;1.80;1.27;;;;;;;13.13;66.52;101423.31;4973108;28;20110;-86
2022/02/09 02:23:16;;;;;;;1.52;1.05;;;;;;;13.11;66.51;101417.25;4973049;28;20034;-85
2022/02/09 02:28:39;;;;;;;4.80;0.95;;;;;;;13.15;66.29;101415.28;4973142;28;20029;-85
2022/02/09 02:31:29;;;;;;;3.35;1.00;;;;;;;13.15;66.72;101410.88;4975962;28;20030;-86
2022/02/09 02:58:10;;;;;;;1.90;0.65;;;;;;;13.21;66.60;101383.25;4972431;28;20060;-85
2022/02/09 03:13:28;;;;;;;1.17;0.60;;;;;;;13.09;66.93;101369.91;4976182;28;20424;-85
2022/02/09 03:16:08;;;;;;;1.02;0.55;;;;;;;13.22;66.12;101369.97;4975989;28;20146;-85
2022/02/09 03:21:46;;;;;;;1.48;1.38;;;;;;;12.98;66.72;101353.91;4974620;28;20628;-85
2022/02/09 03:24:22;;;;;;;0.40;0.40;;;;;;;13.14;66.11;101355.59;4974786;28;20055;-85
2022/02/09 03:27:15;;;;;;;1.38;0.60;;;;;;;13.18;66.31;101351.81;4975849;28;20488;-85
2022/02/09 03:43:45;;;;;;;2.03;0.40;;;;;;;13.15;65.59;101315.06;4975099;28;20066;-85
2022/02/09 03:46:27;;;;;;;0.77;0.40;;;;;;;13.04;65.34;101321.03;4975317;28;20038;-86
2022/02/09 03:49:12;;;;;;;;;;;;;;;13.06;65.69;101333.19;4975894;28;20110;-85
2022/02/09 03:54:38;;;;;;;2.67;0.30;;;;;;;12.92;65.33;101330.56;4975632;28;20042;-85
2022/02/09 03:57:11;;;;;;;0.47;0.40;;;;;;;12.70;66.29;101337.19;4975581;28;20496;-85
2022/02/09 03:59:36;;;;;;;2.70;0.57;;;;;;;12.77;66.41;101331.53;4974829;28;20027;-86
2022/02/09 04:02:03;;;;;;;1.02;0.60;;;;;;;12.80;66.47;101323.44;4975130;28;20023;-86
2022/02/09 04:04:29;;;;;;;1.30;0.50;;;;;;;12.78;66.58;101325.34;4975467;28;20479;-86
2022/02/09 04:06:56;;;;;;;1.35;0.30;;;;;;;12.82;66.97;101314.50;4974045;28;20072;-86
2022/02/09 04:09:27;;;;;;;2.28;0.55;;;;;;;12.88;66.32;101308.00;4974963;28;20035;-86
2022/02/09 04:12:11;;;;;;;1.52;0.47;;;;;;;12.77;66.94;101321.00;4975186;28;20054;-86
2022/02/09 04:14:48;;;;;;;2.58;0.60;;;;;;;12.88;66.75;101308.00;4974878;28;20031;-86
2022/02/09 04:17:31;;;;;;;1.77;0.55;;;;;;;12.86;67.04;101301.97;4974568;28;20567;-86
2022/02/09 04:20:20;;;;;;;0.55;0.40;;;;;;;12.80;67.11;101312.91;4974863;28;20409;-86
2022/02/09 04:36:03;;;;;;;1.20;0.47;;;;;;;12.87;67.01;101312.44;4974924;28;20033;-86
2022/02/09 04:39:24;;;;;;;0.65;0.60;;;;;;;12.80;66.75;101319.03;4974558;28;20039;-86
2022/02/09 04:57:32;;;;;;;1.65;0.50;;;;;;;12.43;67.10;101312.56;4974212;28;20035;-86
2022/02/09 05:28:41;;;;;;;1.67;0.50;;;;;;;12.09;68.04;101309.31;4973647;28;20555;-86
2022/02/09 05:31:08;;;;;;;2.38;0.80;;;;;;;11.97;68.40;101305.66;4973489;28;20043;-86
2022/02/09 05:33:34;;;;;;;2.20;0.68;;;;;;;12.11;68.22;101312.72;4973575;28;20376;-86
2022/02/09 05:35:59;;;;;;;5.65;0.85;;;;;;;11.90;68.53;101307.78;4973486;28;20027;-86
2022/02/09 05:38:25;;;;;;;2.20;0.90;;;;;;;12.06;68.54;101312.13;4973432;28;20031;-86
2022/02/09 05:40:50;;;;;;;4.60;0.90;;;;;;;12.04;68.29;101314.00;4973509;28;20070;-86
2022/02/09 05:43:16;;;;;;;4.35;1.10;;;;;;;12.04;68.50;101316.63;4973582;28;20053;-85
2022/02/09 05:51:03;;;;;;;2.55;0.57;;;;;;;12.16;68.20;101308.00;4973349;28;20575;-86
2022/02/09 05:53:54;;;;;;;2.80;0.93;;;;;;;12.14;68.15;101307.25;4973054;28;20067;-86
2022/02/09 05:58:49;;;;;;;5.63;1.23;;;;;;;12.08;68.49;101319.03;4973181;28;20057;-85
2022/02/09 06:01:14;;;;;;;2.70;1.05;;;;;;;12.14;68.14;101307.25;4973173;28;20027;-85
2022/02/09 06:03:40;;;;;;;2.92;0.90;;;;;;;12.14;68.31;101316.94;4973121;28;20029;-86
2022/02/09 06:06:05;;;;;;;4.95;0.80;;;;;;;12.13;68.25;101316.09;4971736;28;20445;-86
2022/02/09 06:08:31;;;;;;;5.95;0.85;;;;;;;12.07;68.21;101322.56;4973085;28;20346;-85
2022/02/09 06:11:10;;;;;;;2.30;0.73;;;;;;;12.19;67.98;101323.63;4973142;28;20019;-86
2022/02/09 06:13:55;;;;;;;2.30;0.88;;;;;;;12.16;67.84;101318.53;4972898;28;20041;-86
2022/02/09 06:22:06;;;;;;;5.05;1.02;;;;;;;12.20;68.26;101322.66;4972956;28;20042;-86
2022/02/09 06:24:31;;;;;;;2.75;0.80;;;;;;;12.24;67.97;101315.44;4973100;28;20433;-85
2022/02/09 06:26:57;;;;;;;2.33;0.95;;;;;;;12.27;67.78;101317.91;4973059;28;20038;-85
2022/02/09 06:29:23;;;;;;;6.00;1.40;;;;;;;12.24;68.05;101318.94;4977702;28;20035;-85
2022/02/09 06:31:50;;;;;;;3.40;1.00;;;;;;;12.15;67.90;101322.13;4981097;28;20035;-85
2022/02/09 06:34:18;;;;;;;4.75;0.85;;;;;;;12.15;68.29;101319.50;4982024;28;20022;-85
2022/02/09 06:36:57;;;;;;;3.28;0.75;;;;;;;12.22;68.30;101325.22;4980705;28;20031;-85
2022/02/09 06:39:22;;;;;;;3.88;0.95;;;;;;;12.23;68.00;101321.66;4976697;28;20508;-85
2022/02/09 06:41:48;;;;;;;2.40;0.80;;;;;;;12.35;67.82;101320.91;4979036;28;20031;-86
2022/02/09 06:44:13;;;;;;;1.70;0.90;;;;;;;12.38;67.61;101325.13;4982903;28;20029;-87
2022/02/09 06:46:39;;;;;;;2.88;1.00;;;;;;;12.42;67.56;101318.75;4983440;28;20058;-86
2022/02/09 06:49:08;;;;;;;4.00;0.95;;;;;;;12.41;67.28;101324.97;4984110;28;20046;-86
2022/02/09 06:51:39;;;;;;;3.20;0.98;;;;;;;12.45;67.49;101331.75;4979543;28;20026;-87
2022/02/09 06:54:23;;;;;;;2.05;0.80;;;;;;;12.54;67.01;101325.91;4981849;28;20038;-86
2022/02/09 06:59:28;;;;;;;2.45;0.70;;;;;;;12.48;67.13;101328.94;4978916;28;20290;-86
2022/02/09 07:01:53;;;;;;;3.58;0.85;;;;;;;12.49;67.17;101330.59;4974267;28;20461;-86
2022/02/09 07:04:19;;;;;;;3.03;0.82;;;;;;;12.52;67.24;101338.34;4974338;28;20050;-86
2022/02/09 07:06:44;;;;;;;2.25;0.70;;;;;;;12.51;67.06;101328.72;4973913;28;20029;-87
2022/02/09 07:09:10;;;;;;;2.55;0.90;;;;;;;12.52;67.19;101343.59;4974881;28;20062;-86
2022/02/09 07:11:35;;;;;;;4.47;0.70;;;;;;;12.58;66.80;101340.59;4973999;28;20090;-87
2022/02/09 07:14:00;;;;;;;2.67;0.80;;;;;;;12.58;66.67;101337.97;4974026;28;20035;-87
2022/02/09 07:16:27;;;;;;;1.85;0.60;;;;;;;12.56;66.67;101336.34;4973668;28;20078;-86
2022/02/09 07:18:52;;;;;;;3.13;0.50;;;;;;;12.56;66.88;101339.84;4977748;28;20022;-88
2022/02/09 07:21:24;;;;;;;4.18;1.27;;;;;;;12.64;66.83;101345.47;4976920;28;20023;-88
2022/02/09 07:23:52;;;;;;;3.60;0.77;;;;;;;12.74;66.34;101345.75;4976985;28;20117;-89
2022/02/09 07:26:25;;;;;;;3.88;0.70;;;;;;;12.70;66.23;101353.00;4976850;28;20035;-89
2022/02/09 07:28:51;;;;;;;2.03;0.63;;;;;;;12.64;66.65;101353.38;4976181;28;20026;-90
2022/02/09 07:31:16;;;;;;;7.25;1.33;;;;;;;12.70;66.49;101354.78;4976546;28;20089;-87
2022/02/09 07:33:44;;;;;;;1.55;0.70;;;;;;;12.70;66.24;101353.00;4975825;28;20098;-88
2022/02/09 07:36:10;;;;;;;2.65;0.60;;;;;;;12.73;66.47;101354.59;4975744;28;20035;-88
2022/02/09 07:38:37;;;;;;;3.17;0.93;;;;;;;12.81;66.06;101354.13;4976554;28;20030;-88
2022/02/09 07:41:03;;;;;;;4.18;0.90;;;;;;;12.88;65.91;101363.34;4975650;28;20031;-88
2022/02/09 07:49:07;;;;;;;1.92;0.75;;;;;;;12.81;66.19;101360.22;4975598;28;20253;-87
2022/02/09 07:54:02;;;;;;;4.22;0.65;;;;;;;12.87;65.81;101362.50;4975940;28;20059;-88
2022/02/09 07:56:34;;;;;;;2.90;0.70;;;;;;;12.88;65.58;101360.72;4964273;28;20031;-87
2022/02/09 07:59:00;;;;;;;2.97;0.98;;;;;;;13.00;65.97;101370.47;4975533;28;20030;-88
2022/02/09 08:01:26;;;;;;;9.25;2.10;;;;;;;12.97;65.20;101368.03;4976038;28;20023;-87
2022/02/09 08:03:53;;;;;;;5.75;0.68;;;;;;;13.10;65.26;101365.47;4976010;28;20396;-87
2022/02/09 08:06:23;;;;;;;4.78;0.90;;;;;;;13.16;65.24;101358.97;4973511;28;20026;-88
2022/02/09 08:08:50;;;;;;;2.28;0.60;;;;;;;13.20;65.23;101365.75;4974417;28;20022;-88
2022/02/09 08:11:29;;;;;;;3.03;0.80;;;;;;;13.06;65.61;101356.91;4971137;28;20057;-88
2022/02/09 08:25:45;;;;;;;5.82;0.73;;;;;;;13.27;65.25;101352.06;4969829;28;20031;-87
2022/02/09 08:33:03;;;;;;;5.57;1.67;;;;;;;13.45;64.56;101352.69;4974838;28;20041;-88
2022/02/09 08:35:29;;;;;;;9.00;0.80;;;;;;;13.40;64.53;101349.50;4955155;28;20039;-89
2022/02/09 08:37:57;;;;;;;5.35;0.93;;;;;;;13.22;65.18;101359.41;4969537;28;20398;-89
2022/02/09 08:40:23;;;;;;;1.77;0.52;;;;;;;13.20;65.18;101352.56;4974845;28;20441;-89
2022/02/09 08:42:49;;;;;;;5.53;1.10;;;;;;;13.19;65.02;101342.94;4974369;28;20111;-89
2022/02/09 08:45:15;;;;;;;4.80;0.88;;;;;;;13.34;64.81;101354.34;4961655;28;20106;-88
2022/02/09 08:47:41;;;;;;;6.28;1.35;;;;;;;13.36;64.94;101345.38;4974111;28;20034;-89
2022/02/09 08:50:07;;;;;;;2.67;1.08;;;;;;;13.28;64.84;101347.63;4969606;28;20031;-88
2022/02/09 08:52:32;;;;;;;5.32;1.30;;;;;;;13.44;64.44;101336.97;4961821;28;20031;-88
2022/02/09 08:54:58;;;;;;;3.80;1.02;;;;;;;13.61;64.30;101346.44;4974638;28;20023;-89
2022/02/09 08:57:25;;;;;;;2.40;1.08;;;;;;;13.76;64.57;101337.47;4966446;28;20069;-88
2022/02/09 08:59:52;;;;;;;2.65;1.00;;;;;;;13.74;64.14;101339.38;4956310;28;20548;-88
2022/02/09 09:02:20;;;;;;;3.90;0.93;;;;;;;13.73;63.44;101347.41;4968121;28;20093;-88
2022/02/09 09:04:51;;;;;;;7.75;1.98;;;;;;;13.88;63.58;101349.88;4956599;28;20497;-88
2022/02/09 09:07:23;;;;;;;5.65;1.08;;;;;;;13.89;63.32;101351.56;4963196;28;20071;-88
2022/02/09 10:34:05;;;;;;;3.08;0.40;;;;;;;16.23;58.20;101374.59;4972719;28;20030;-86
2022/02/09 10:36:51;;;;;;;6.63;1.35;;;;;;;16.34;57.84;101365.81;4961110;28;20093;-86
2022/02/09 10:39:24;;;;;;;5.30;0.43;;;;;;;16.14;58.04;101362.06;4964062;28;20031;-86
2022/02/09 10:42:11;;;;;;;4.57;0.65;;;;;;;16.20;58.23;101374.81;4952570;29;20034;-89
2022/02/09 10:44:46;;;;;;;4.95;0.82;;;;;;;16.28;58.29;101370.75;4958092;28;20033;-88
2022/02/09 10:47:34;;;;;;;5.05;0.50;;;;;;;16.16;58.41;101369.88;4953397;28;20544;-88
2022/02/09 10:50:14;;;;;;;8.30;1.35;;;;;;;16.19;58.43;101359.91;4968801;28;20037;-88
2022/02/09 10:52:49;;;;;;;1.58;0.40;;;;;;;16.00;59.13;101356.97;4976256;28;20030;-88
2022/02/09 10:55:38;;;;;;;3.50;0.50;;;;;;;16.01;59.16;101379.84;4972765;28;20032;-88
2022/02/09 10:58:15;;;;;;;2.40;0.60;;;;;;;15.76;60.05;101379.03;4956004;28;20378;-88
2022/02/09 11:00:46;;;;;;;3.95;0.70;;;;;;;15.62;60.09;101372.09;4965949;28;20033;-88
2022/02/09 11:03:19;;;;;;;3.25;0.82;;;;;;;15.82;59.90;101381.22;4957490;28;20027;-87
2022/02/09 11:05:52;;;;;;;3.85;0.50;;;;;;;15.76;60.03;101375.56;4969287;28;20110;-85
2022/02/09 11:08:18;;;;;;;3.58;0.60;;;;;;;15.85;59.71;101374.84;4976144;28;20029;-85
2022/02/09 11:10:45;;;;;;;2.92;0.60;;;;;;;15.95;59.97;101380.28;4957806;28;20035;-85
2022/02/09 11:13:11;;;;;;;1.70;0.40;;;;;;;15.94;60.04;101383.91;4956950;28;20020;-85
2022/02/09 11:15:44;;;;;;;4.70;1.50;;;;;;;15.63;60.39;101380.88;4973751;28;20099;-85
2022/02/09 11:18:14;;;;;;;2.72;0.55;;;;;;;15.59;60.73;101379.41;4976004;28;20027;-85
2022/02/09 11:21:13;;;;;;;3.50;0.70;;;;;;;15.65;60.53;101373.66;4973327;28;20066;-85
2022/02/09 11:23:51;;;;;;;3.50;0.73;;;;;;;15.86;60.27;101373.91;4974312;28;20038;-85
2022/02/09 11:32:11;;;;;;;5.07;1.02;;;;;;;16.19;59.74;101367.84;4971722;28;20041;-87
2022/02/09 11:34:48;;;;;;;2.28;0.50;;;;;;;16.10;60.24;101368.53;4975001;28;20034;-87
2022/02/09 11:37:23;;;;;;;2.90;0.57;;;;;;;16.05;59.79;101365.38;4969424;28;20066;-87
2022/02/09 11:39:51;;;;;;;4.60;0.65;;;;;;;16.12;60.04;101379.03;4957374;28;20035;-87
2022/02/09 11:43:06;;;;;;;4.45;0.88;;;;;;;15.64;60.94;101372.81;4956501;28;20485;-88
2022/02/09 12:10:13;;;;;;;2.05;0.73;;;;;;;16.39;60.00;101346.91;4964006;28;20446;-84
2022/02/09 12:12:53;;;;;;;2.92;0.98;;;;;;;16.36;59.92;101347.16;4955945;28;20078;-84
2022/02/09 12:15:46;;;;;;;2.58;0.50;;;;;;;16.38;59.34;101335.47;4960393;28;20429;-84
2022/02/09 12:18:24;;;;;;;3.08;0.50;;;;;;;16.49;59.43;101337.28;4959436;28;20054;-85
2022/02/09 12:20:55;;;;;;;0.50;0.30;;;;;;;16.29;59.71;101343.28;4970021;28;20030;-84
2022/02/09 12:23:31;;;;;;;6.38;1.20;;;;;;;16.38;59.63;101348.72;4960204;28;20448;-85
2022/02/09 12:25:56;;;;;;;3.38;0.60;;;;;;;16.30;59.89;101337.88;4973401;28;20042;-87
2022/02/09 12:28:29;;;;;;;1.90;0.80;;;;;;;16.24;60.24;101338.34;4970464;28;20027;-87
2022/02/09 12:31:06;;;;;;;1.48;0.47;;;;;;;16.44;60.08;101332.34;4963870;28;20019;-87
2022/02/09 12:33:33;;;;;;;5.88;0.60;;;;;;;16.36;59.57;101324.13;4959128;28;20023;-87
2022/02/09 12:36:16;;;;;;;3.25;1.15;;;;;;;16.34;60.26;101327.88;4973937;28;20483;-88
2022/02/09 12:38:42;;;;;;;2.25;0.55;;;;;;;16.31;60.07;101315.72;4963173;28;20054;-88
2022/02/09 12:41:23;;;;;;;0.85;0.30;;;;;;;16.05;60.74;101320.34;4974247;28;20496;-89
2022/02/09 12:44:02;;;;;;;2.78;0.40;;;;;;;16.15;60.74;101320.50;4962852;28;20036;-91
2022/02/09 12:46:37;;;;;;;5.78;1.08;;;;;;;16.09;60.54;101313.84;4955406;28;20090;-90
2022/02/09 12:49:14;;;;;;;1.73;0.38;;;;;;;16.08;60.86;101328.09;4961810;28;20033;-85
2022/02/09 12:51:42;;;;;;;3.50;0.60;;;;;;;15.84;61.38;101318.41;4972572;28;20031;-85
2022/02/09 12:54:09;;;;;;;2.53;0.45;;;;;;;16.09;60.87;101316.50;4957447;28;20058;-85
2022/02/09 12:56:38;;;;;;;3.55;0.50;;;;;;;16.05;60.85;101315.06;4954902;28;20035;-85
2022/02/09 12:59:08;;;;;;;1.65;0.50;;;;;;;16.09;60.94;101311.22;4965885;28;20027;-85
2022/02/09 13:01:42;;;;;;;1.98;0.57;;;;;;;16.08;61.03;101301.59;4967697;28;20025;-85
2022/02/09 13:04:08;;;;;;;4.28;0.70;;;;;;;16.13;61.01;101303.88;4954316;28;20023;-85
2022/02/09 13:06:34;;;;;;;3.22;0.80;;;;;;;16.02;61.59;101302.91;4966839;28;20117;-86
2022/02/09 13:09:00;;;;;;;4.20;1.10;;;;;;;15.99;61.98;101297.81;4973369;28;20058;-85
2022/02/09 13:11:31;;;;;;;3.25;0.65;;;;;;;16.08;62.00;101293.66;4971584;28;20038;-86
2022/02/09 13:14:10;;;;;;;3.65;0.63;;;;;;;16.09;62.13;101297.97;4968983;28;20139;-86
2022/02/09 14:32:12;;;;;;;3.65;1.00;;;;;;;16.90;60.57;101247.47;4970287;28;20042;-86
2022/02/09 14:58:30;;;;;;;1.50;0.70;;;;;;;16.17;64.61;101237.31;4977111;28;20038;-86
2022/02/09 15:01:11;;;;;;;3.65;0.80;;;;;;;16.04;64.84;101226.81;4977122;28;20098;-86
2022/02/09 15:04:00;;;;;;;6.20;0.82;;;;;;;15.93;65.26;101228.59;4967470;28;20031;-86
2022/02/09 15:06:52;;;;;;;3.63;0.98;;;;;;;15.86;65.50;101222.94;4969396;28;20039;-85
2022/02/09 15:15:22;;;;;;;2.78;1.10;;;;;;;15.69;66.57;101224.19;4974495;28;20122;-85
2022/02/09 15:17:30;;;;;;;3.33;1.25;;;;;;;15.73;66.62;101219.56;4972461;28;20043;-86
2022/02/09 15:22:17;;;;;;;2.15;0.90;;;;;;;15.66;66.73;101220.00;4972245;28;20035;-85
2022/02/09 15:24:46;;;;;;;5.88;0.73;;;;;;;15.59;66.67;101223.22;4975420;28;20026;-85
2022/02/09 15:27:18;;;;;;;4.00;1.25;;;;;;;15.49;66.91;101209.84;4976290;28;20031;-85
2022/02/09 15:29:45;;;;;;;2.20;1.23;;;;;;;15.40;68.17;101210.53;4968767;28;20389;-85
2022/02/09 15:34:53;;;;;;;1.10;0.30;;;;;;;15.79;67.06;101196.06;4969538;28;20045;-85
2022/02/09 15:37:41;;;;;;;1.63;0.40;;;;;;;15.77;66.82;101198.00;4975081;28;20033;-85
2022/02/09 15:40:22;;;;;;;2.58;0.50;;;;;;;15.72;67.03;101200.16;4956301;28;20118;-85
2022/02/09 15:43:03;;;;;;;1.42;0.60;;;;;;;15.70;67.10;101196.78;4969184;28;20046;-85
2022/02/09 16:23:46;;;;;;;0.32;0.28;;;;;;;15.36;67.83;101187.91;4973485;28;20042;-88
2022/02/09 16:47:03;;;;;;;0.80;0.80;;;;;;;15.03;68.10;101192.13;4973246;28;20548;-88
2022/02/09 16:52:03;;;;;;;1.52;1.10;;;;;;;15.10;67.78;101189.88;4974464;28;20015;-87
2022/02/09 16:54:46;;;;;;;1.10;1.00;;;;;;;15.01;68.19;101186.13;4973502;28;20034;-88
2022/02/09 17:11:09;;;;;;;3.13;2.40;;;;;;;14.64;68.80;101181.72;4972024;28;20401;-87
2022/02/09 17:19:22;;;;;;;3.53;3.22;;;;;;;14.57;69.05;101180.47;4972081;28;20045;-88
2022/02/09 17:21:47;;;;;;;6.15;4.18;;;;;;;14.57;69.34;101180.47;4973422;28;20034;-88
2022/02/09 17:24:13;;;;;;;3.65;3.35;;;;;;;14.53;69.25;101173.69;4965118;28;20498;-88
2022/02/09 17:26:39;;;;;;;6.22;4.40;;;;;;;14.71;69.07;101181.28;4967694;28;20031;-89
2022/02/09 17:29:05;;;;;;;5.65;5.00;;;;;;;14.63;68.71;101173.91;4972651;28;20117;-88
2022/02/09 17:58:14;;;;;;;12.57;10.93;;;;;;;14.37;69.83;101179.22;4959021;28;20043;-84
2022/02/09 18:00:40;;;;;;;22.00;17.13;;;;;;;14.39;70.07;101181.78;4955473;28;20098;-87
2022/02/09 18:03:05;;;;;;;16.92;14.15;;;;;;;14.36;69.94;101177.56;4969303;28;20023;-87
2022/02/09 18:08:00;;;;;;;19.85;15.00;;;;;;;14.42;69.63;101182.41;4971425;28;20042;-87
2022/02/09 18:10:46;;;;;;;13.50;11.82;;;;;;;14.43;69.79;101188.53;4972482;28;20043;-87
2022/02/09 18:34:57;;;;;;;15.82;12.18;;;;;;;14.01;69.92;101207.28;4954767;28;20027;-86
2022/02/09 18:45:22;;;;;;;16.63;12.63;;;;;;;13.73;71.02;101216.28;4971695;28;20042;-85
2022/02/09 19:03:37;;;;;;;32.03;17.80;;;;;;;13.67;70.63;101214.06;4971087;28;20089;-84
2022/02/09 19:06:19;;;;;;;21.08;16.13;;;;;;;13.74;70.41;101211.84;4971968;28;20080;-85
2022/02/09 19:14:07;;;;;;;;;;;;;;;13.81;69.99;101207.84;4966478;28;20053;-84
2022/02/09 19:48:38;;;;;;;11.32;4.82;;;;;;;13.71;68.92;101202.34;4972939;28;20041;-86
2022/02/09 19:56:10;;;;;;;7.50;4.20;;;;;;;13.72;68.72;101209.31;4975428;28;20665;-86
2022/02/09 19:59:00;;;;;;;3.17;2.15;;;;;;;13.71;68.46;101212.06;4961055;28;20031;-86
2022/02/09 20:01:23;;;;;;;5.22;2.00;;;;;;;13.55;68.80;101215.75;4967423;28;20035;-87
2022/02/09 20:03:49;;;;;;;3.60;1.40;;;;;;;13.47;68.44;101216.25;4972995;28;20065;-87
2022/02/09 20:06:15;;;;;;;4.88;2.47;;;;;;;13.44;68.49;101205.06;4973505;28;20109;-88
2022/02/09 20:08:40;;;;;;;3.83;1.60;;;;;;;13.43;68.89;101212.13;4972550;28;20054;-86
2022/02/09 20:11:08;;;;;;;5.13;1.73;;;;;;;13.47;69.13;101213.63;4973800;28;20127;-86
2022/02/09 20:13:34;;;;;;;5.97;1.65;;;;;;;13.45;68.65;101218.16;4971138;28;20358;-88
2022/02/09 20:16:00;;;;;;;3.60;1.20;;;;;;;13.37;68.94;101209.03;4974064;28;20436;-87
2022/02/09 20:18:31;;;;;;;2.30;1.30;;;;;;;13.31;68.76;101215.59;4973901;28;20030;-87
2022/02/09 20:20:57;;;;;;;2.55;1.00;;;;;;;13.32;68.40;101219.91;4954367;28;20055;-87
2022/02/09 20:23:23;;;;;;;2.65;1.20;;;;;;;13.26;68.85;101217.66;4955157;28;20474;-86
2022/02/09 20:25:48;;;;;;;4.53;1.58;;;;;;;13.26;69.21;101217.66;4973009;28;20473;-87
2022/02/09 20:28:15;;;;;;;3.17;1.70;;;;;;;13.32;68.56;101217.28;4974340;28;20038;-87
2022/02/09 20:30:45;;;;;;;3.42;1.75;;;;;;;13.30;68.28;101219.16;4958336;28;20027;-87
2022/02/09 20:33:16;;;;;;;3.00;1.85;;;;;;;13.44;67.88;101218.25;4974012;28;20452;-86
2022/02/09 20:35:41;;;;;;;5.75;1.90;;;;;;;13.48;67.66;101220.56;4966967;28;20034;-86
2022/02/09 20:38:12;;;;;;;2.63;1.85;;;;;;;13.32;68.33;101214.63;4968564;28;20038;-86
2022/02/09 20:40:57;;;;;;;3.38;1.50;;;;;;;13.34;68.44;101223.28;4966395;28;20066;-86
2022/02/09 20:43:23;;;;;;;2.10;1.20;;;;;;;13.59;67.17;101230.41;4972276;28;20501;-86
2022/02/09 20:45:52;;;;;;;3.67;1.20;;;;;;;13.56;67.13;101229.78;4973963;28;20039;-86
2022/02/09 20:48:23;;;;;;;5.40;1.70;;;;;;;13.58;66.48;101226.06;4967783;28;20050;-86
2022/02/09 20:50:49;;;;;;;4.03;1.60;;;;;;;13.47;66.45;101237.38;4966145;28;20041;-86
2022/02/09 20:53:15;;;;;;;1.52;1.13;;;;;;;13.37;67.17;101236.28;4973900;28;20117;-86
2022/02/09 20:55:42;;;;;;;4.90;1.88;;;;;;;13.52;66.50;101233.56;4973964;28;20030;-85
2022/02/09 20:58:07;;;;;;;3.03;1.55;;;;;;;13.45;65.88;101223.44;4970252;28;20062;-87
2022/02/09 21:00:44;;;;;;;2.53;1.50;;;;;;;13.44;66.01;101234.91;4973076;28;20449;-86
2022/02/09 21:03:30;;;;;;;3.67;1.58;;;;;;;13.29;65.83;101228.88;4971198;28;20396;-86
2022/02/09 21:08:42;;;;;;;3.88;1.58;;;;;;;13.39;66.43;101237.03;4972641;28;20037;-86
2022/02/09 21:44:26;;;;;;;4.55;1.33;;;;;;;13.04;65.72;101226.97;4972928;28;20122;-85
2022/02/09 21:46:57;;;;;;;2.13;0.80;;;;;;;13.03;65.56;101227.94;4966388;28;20374;-86
2022/02/09 21:54:44;;;;;;;2.72;1.02;;;;;;;12.90;65.49;101221.75;4977176;28;20393;-86
2022/02/09 21:57:33;;;;;;;3.17;0.85;;;;;;;13.02;65.42;101218.31;4975807;28;20043;-86
2022/02/09 22:16:45;;;;;;;5.68;0.98;;;;;;;12.76;66.10;101208.63;4971163;28;20428;-85
2022/02/09 22:22:04;;;;;;;0.82;0.60;;;;;;;12.75;65.98;101199.88;4966995;28;20114;-85
2022/02/09 22:33:51;;;;;;;2.95;1.08;;;;;;;12.42;65.87;101180.03;4967972;28;20038;-86
2022/02/09 22:56:50;;;;;;;4.03;1.30;;;;;;;11.98;65.44;101188.03;4977687;28;20085;-85
2022/02/09 22:59:32;;;;;;;4.30;1.48;;;;;;;11.89;65.83;101187.66;4976879;28;20031;-85
2022/02/09 23:02:03;;;;;;;5.60;1.65;;;;;;;11.77;65.98;101172.59;4976946;28;20392;-85
2022/02/09 23:07:06;;;;;;;2.78;1.15;;;;;;;11.81;65.25;101176.75;4975731;28;20070;-85
2022/02/09 23:09:45;;;;;;;3.10;1.25;;;;;;;11.73;65.79;101157.94;4976917;28;20091;-85
2022/02/09 23:12:21;;;;;;;5.35;1.45;;;;;;;11.75;66.02;101158.69;4976778;28;20048;-86
2022/02/09 23:20:55;;;;;;;2.83;1.20;;;;;;;11.79;66.43;101164.59;4976942;28;20025;-86
